sensor_id;sensor_type;location;lat;lon;timestamp;temperature;humidity
802;DHT22;383;48.766;9.270;2022-10-31T00:01:19;12.30;99.90
802;DHT22;383;48.766;9.270;2022-10-31T00:03:46;12.30;99.90
802;DHT22;383;48.766;9.270;2022-10-31T00:06:14;12.30;99.90
802;DHT22;383;48.766;9.270;2022-10-31T00:08:44;12.30;99.90
802;DHT22;383;48.766;9.270;2022-10-31T00:11:11;12.20;99.90
802;DHT22;383;48.766;9.270;2022-10-31T00:13:38;12.20;99.90
802;DHT22;383;48.766;9.270;2022-10-31T00:16:06;12.30;99.90
802;DHT22;383;48.766;9.270;2022-10-31T00:18:39;12.20;99.90
802;DHT22;383;48.766;9.270;2022-10-31T00:21:05;12.20;99.90
802;DHT22;383;48.766;9.270;2022-10-31T00:23:32;12.20;99.90
802;DHT22;383;48.766;9.270;2022-10-31T00:26:02;12.20;99.90
802;DHT22;383;48.766;9.270;2022-10-31T00:28:29;12.20;99.90
802;DHT22;383;48.766;9.270;2022-10-31T00:30:58;12.10;99.90
802;DHT22;383;48.766;9.270;2022-10-31T00:33:26;12.10;99.90
802;DHT22;383;48.766;9.270;2022-10-31T00:35:52;12.10;99.90
802;DHT22;383;48.766;9.270;2022-10-31T00:38:19;12.10;99.90
802;DHT22;383;48.766;9.270;2022-10-31T00:40:46;12.10;99.90
802;DHT22;383;48.766;9.270;2022-10-31T00:43:14;12.10;99.90
802;DHT22;383;48.766;9.270;2022-10-31T00:45:41;12.10;99.90
802;DHT22;383;48.766;9.270;2022-10-31T00:48:08;12.20;99.90
802;DHT22;383;48.766;9.270;2022-10-31T00:50:36;12.10;99.90
802;DHT22;383;48.766;9.270;2022-10-31T00:53:02;12.10;99.90
802;DHT22;383;48.766;9.270;2022-10-31T00:55:29;12.00;99.90
802;DHT22;383;48.766;9.270;2022-10-31T00:57:56;12.00;99.90
802;DHT22;383;48.766;9.270;2022-10-31T01:00:24;12.10;99.90
802;DHT22;383;48.766;9.270;2022-10-31T01:02:51;12.10;99.90
802;DHT22;383;48.766;9.270;2022-10-31T01:05:18;12.00;99.90
802;DHT22;383;48.766;9.270;2022-10-31T01:07:45;12.00;99.90
802;DHT22;383;48.766;9.270;2022-10-31T01:10:12;11.90;99.90
802;DHT22;383;48.766;9.270;2022-10-31T01:12:40;11.90;99.90
802;DHT22;383;48.766;9.270;2022-10-31T01:15:08;11.80;99.90
802;DHT22;383;48.766;9.270;2022-10-31T01:17:37;11.80;99.90
802;DHT22;383;48.766;9.270;2022-10-31T01:20:04;11.80;99.90
802;DHT22;383;48.766;9.270;2022-10-31T01:22:32;11.80;99.90
802;DHT22;383;48.766;9.270;2022-10-31T01:24:59;11.80;99.90
802;DHT22;383;48.766;9.270;2022-10-31T01:27:26;11.80;99.90
802;DHT22;383;48.766;9.270;2022-10-31T01:29:53;11.70;99.90
802;DHT22;383;48.766;9.270;2022-10-31T01:32:19;11.70;99.90
802;DHT22;383;48.766;9.270;2022-10-31T01:34:47;11.70;99.90
802;DHT22;383;48.766;9.270;2022-10-31T01:37:14;11.70;99.90
802;DHT22;383;48.766;9.270;2022-10-31T01:39:41;11.70;99.90
802;DHT22;383;48.766;9.270;2022-10-31T01:42:17;11.70;99.90
802;DHT22;383;48.766;9.270;2022-10-31T01:44:55;11.70;99.90
802;DHT22;383;48.766;9.270;2022-10-31T01:47:38;11.60;99.90
802;DHT22;383;48.766;9.270;2022-10-31T01:50:13;11.60;99.90
802;DHT22;383;48.766;9.270;2022-10-31T01:52:43;11.60;99.90
802;DHT22;383;48.766;9.270;2022-10-31T01:55:15;11.60;99.90
802;DHT22;383;48.766;9.270;2022-10-31T01:57:44;11.60;99.90
802;DHT22;383;48.766;9.270;2022-10-31T02:00:13;11.60;99.90
802;DHT22;383;48.766;9.270;2022-10-31T02:02:40;11.60;99.90
802;DHT22;383;48.766;9.270;2022-10-31T02:05:11;11.70;99.90
802;DHT22;383;48.766;9.270;2022-10-31T02:07:42;11.70;99.90
802;DHT22;383;48.766;9.270;2022-10-31T02:10:10;11.60;99.90
802;DHT22;383;48.766;9.270;2022-10-31T02:12:37;11.60;99.90
802;DHT22;383;48.766;9.270;2022-10-31T02:15:05;11.60;99.90
802;DHT22;383;48.766;9.270;2022-10-31T02:17:33;11.60;99.90
802;DHT22;383;48.766;9.270;2022-10-31T02:20:09;11.60;99.90
802;DHT22;383;48.766;9.270;2022-10-31T02:22:51;11.60;99.90
802;DHT22;383;48.766;9.270;2022-10-31T02:25:36;11.60;99.90
802;DHT22;383;48.766;9.270;2022-10-31T02:28:25;11.60;99.90
802;DHT22;383;48.766;9.270;2022-10-31T02:31:12;11.60;99.90
802;DHT22;383;48.766;9.270;2022-10-31T02:33:42;11.60;99.90
802;DHT22;383;48.766;9.270;2022-10-31T02:36:12;11.60;99.90
802;DHT22;383;48.766;9.270;2022-10-31T02:38:49;11.60;99.90
802;DHT22;383;48.766;9.270;2022-10-31T02:41:22;11.50;99.90
802;DHT22;383;48.766;9.270;2022-10-31T02:43:58;11.50;99.90
802;DHT22;383;48.766;9.270;2022-10-31T02:46:32;11.50;99.90
802;DHT22;383;48.766;9.270;2022-10-31T02:49:05;11.50;99.90
802;DHT22;383;48.766;9.270;2022-10-31T02:51:33;11.40;99.90
802;DHT22;383;48.766;9.270;2022-10-31T02:54:00;11.40;99.90
802;DHT22;383;48.766;9.270;2022-10-31T02:56:26;11.40;99.90
802;DHT22;383;48.766;9.270;2022-10-31T02:58:55;11.40;99.90
802;DHT22;383;48.766;9.270;2022-10-31T03:01:44;11.40;99.90
802;DHT22;383;48.766;9.270;2022-10-31T03:07:42;11.40;99.90
802;DHT22;383;48.766;9.270;2022-10-31T03:10:17;11.40;99.90
802;DHT22;383;48.766;9.270;2022-10-31T03:12:57;11.40;99.90
802;DHT22;383;48.766;9.270;2022-10-31T03:15:28;11.40;99.90
802;DHT22;383;48.766;9.270;2022-10-31T03:18:02;11.30;99.90
802;DHT22;383;48.766;9.270;2022-10-31T03:20:36;11.30;99.90
802;DHT22;383;48.766;9.270;2022-10-31T03:23:05;11.30;99.90
802;DHT22;383;48.766;9.270;2022-10-31T03:25:34;11.30;99.90
802;DHT22;383;48.766;9.270;2022-10-31T03:28:03;11.20;99.90
802;DHT22;383;48.766;9.270;2022-10-31T03:30:32;11.20;99.90
802;DHT22;383;48.766;9.270;2022-10-31T03:33:03;11.20;99.90
802;DHT22;383;48.766;9.270;2022-10-31T03:35:32;11.20;99.90
802;DHT22;383;48.766;9.270;2022-10-31T03:38:00;11.10;99.90
802;DHT22;383;48.766;9.270;2022-10-31T03:40:29;11.10;99.90
802;DHT22;383;48.766;9.270;2022-10-31T03:43:02;11.10;99.90
802;DHT22;383;48.766;9.270;2022-10-31T03:45:31;11.10;99.90
802;DHT22;383;48.766;9.270;2022-10-31T03:48:00;11.10;99.90
802;DHT22;383;48.766;9.270;2022-10-31T03:50:30;11.00;99.90
802;DHT22;383;48.766;9.270;2022-10-31T03:53:04;11.00;99.90
802;DHT22;383;48.766;9.270;2022-10-31T03:55:37;11.10;99.90
802;DHT22;383;48.766;9.270;2022-10-31T03:58:08;11.10;99.90
802;DHT22;383;48.766;9.270;2022-10-31T04:00:38;11.00;99.90
802;DHT22;383;48.766;9.270;2022-10-31T04:03:11;11.10;99.90
802;DHT22;383;48.766;9.270;2022-10-31T04:05:38;11.10;99.90
802;DHT22;383;48.766;9.270;2022-10-31T04:08:10;11.00;99.90
802;DHT22;383;48.766;9.270;2022-10-31T04:10:40;11.00;99.90
802;DHT22;383;48.766;9.270;2022-10-31T04:13:11;11.10;99.90
802;DHT22;383;48.766;9.270;2022-10-31T04:15:41;11.00;99.90
802;DHT22;383;48.766;9.270;2022-10-31T04:18:11;11.00;99.90
802;DHT22;383;48.766;9.270;2022-10-31T04:20:39;11.00;99.90
802;DHT22;383;48.766;9.270;2022-10-31T04:23:14;11.00;99.90
802;DHT22;383;48.766;9.270;2022-10-31T04:25:44;11.00;99.90
802;DHT22;383;48.766;9.270;2022-10-31T04:28:11;11.00;99.90
802;DHT22;383;48.766;9.270;2022-10-31T04:30:38;11.00;99.90
802;DHT22;383;48.766;9.270;2022-10-31T04:33:04;11.10;99.90
802;DHT22;383;48.766;9.270;2022-10-31T04:35:32;11.10;99.90
802;DHT22;383;48.766;9.270;2022-10-31T04:37:59;11.00;99.90
802;DHT22;383;48.766;9.270;2022-10-31T04:40:26;11.00;99.90
802;DHT22;383;48.766;9.270;2022-10-31T04:42:53;10.90;99.90
802;DHT22;383;48.766;9.270;2022-10-31T04:45:19;10.90;99.90
802;DHT22;383;48.766;9.270;2022-10-31T04:47:46;10.90;99.90
802;DHT22;383;48.766;9.270;2022-10-31T04:50:13;10.90;99.90
802;DHT22;383;48.766;9.270;2022-10-31T04:52:41;10.90;99.90
802;DHT22;383;48.766;9.270;2022-10-31T04:55:09;10.90;99.90
802;DHT22;383;48.766;9.270;2022-10-31T04:57:40;10.80;99.90
802;DHT22;383;48.766;9.270;2022-10-31T05:00:08;10.80;99.90
802;DHT22;383;48.766;9.270;2022-10-31T05:02:43;10.80;99.90
802;DHT22;383;48.766;9.270;2022-10-31T05:05:10;10.80;99.90
802;DHT22;383;48.766;9.270;2022-10-31T05:07:39;10.80;99.90
802;DHT22;383;48.766;9.270;2022-10-31T05:10:08;10.80;99.90
802;DHT22;383;48.766;9.270;2022-10-31T05:12:36;10.70;99.90
802;DHT22;383;48.766;9.270;2022-10-31T05:15:03;10.70;99.90
802;DHT22;383;48.766;9.270;2022-10-31T05:17:30;10.70;99.90
802;DHT22;383;48.766;9.270;2022-10-31T05:19:57;10.70;99.90
802;DHT22;383;48.766;9.270;2022-10-31T05:22:24;10.70;99.90
802;DHT22;383;48.766;9.270;2022-10-31T05:24:50;10.60;99.90
802;DHT22;383;48.766;9.270;2022-10-31T05:27:18;10.60;99.90
802;DHT22;383;48.766;9.270;2022-10-31T05:29:46;10.60;99.90
802;DHT22;383;48.766;9.270;2022-10-31T05:32:13;10.60;99.90
802;DHT22;383;48.766;9.270;2022-10-31T05:34:39;10.60;99.90
802;DHT22;383;48.766;9.270;2022-10-31T05:37:06;10.60;99.90
802;DHT22;383;48.766;9.270;2022-10-31T05:39:33;10.50;99.90
802;DHT22;383;48.766;9.270;2022-10-31T05:41:59;10.50;99.90
802;DHT22;383;48.766;9.270;2022-10-31T05:44:27;10.50;99.90
802;DHT22;383;48.766;9.270;2022-10-31T05:46:54;10.50;99.90
802;DHT22;383;48.766;9.270;2022-10-31T05:49:21;10.50;99.90
802;DHT22;383;48.766;9.270;2022-10-31T05:51:48;10.40;99.90
802;DHT22;383;48.766;9.270;2022-10-31T05:54:14;10.40;99.90
802;DHT22;383;48.766;9.270;2022-10-31T05:56:41;10.40;99.90
802;DHT22;383;48.766;9.270;2022-10-31T05:59:15;10.50;99.90
802;DHT22;383;48.766;9.270;2022-10-31T06:01:43;10.40;99.90
802;DHT22;383;48.766;9.270;2022-10-31T06:04:09;10.40;99.90
802;DHT22;383;48.766;9.270;2022-10-31T06:06:36;10.40;99.90
802;DHT22;383;48.766;9.270;2022-10-31T06:09:03;10.40;99.90
802;DHT22;383;48.766;9.270;2022-10-31T06:11:29;10.40;99.90
802;DHT22;383;48.766;9.270;2022-10-31T06:13:56;10.40;99.90
802;DHT22;383;48.766;9.270;2022-10-31T06:16:23;10.30;99.90
802;DHT22;383;48.766;9.270;2022-10-31T06:18:51;10.40;99.90
802;DHT22;383;48.766;9.270;2022-10-31T06:21:18;10.30;99.90
802;DHT22;383;48.766;9.270;2022-10-31T06:23:44;10.40;99.90
802;DHT22;383;48.766;9.270;2022-10-31T06:26:11;10.30;99.90
802;DHT22;383;48.766;9.270;2022-10-31T06:28:38;10.40;99.90
802;DHT22;383;48.766;9.270;2022-10-31T06:31:04;10.30;99.90
802;DHT22;383;48.766;9.270;2022-10-31T06:33:32;10.40;99.90
802;DHT22;383;48.766;9.270;2022-10-31T06:36:01;10.40;99.90
802;DHT22;383;48.766;9.270;2022-10-31T06:38:28;10.40;99.90
802;DHT22;383;48.766;9.270;2022-10-31T06:40:55;10.40;99.90
802;DHT22;383;48.766;9.270;2022-10-31T06:43:22;10.40;99.90
802;DHT22;383;48.766;9.270;2022-10-31T06:45:48;10.40;99.90
802;DHT22;383;48.766;9.270;2022-10-31T06:48:15;10.40;99.90
802;DHT22;383;48.766;9.270;2022-10-31T06:50:42;10.50;99.90
802;DHT22;383;48.766;9.270;2022-10-31T06:53:10;10.60;99.90
802;DHT22;383;48.766;9.270;2022-10-31T06:55:37;10.60;99.90
802;DHT22;383;48.766;9.270;2022-10-31T06:58:03;10.70;99.90
802;DHT22;383;48.766;9.270;2022-10-31T07:00:30;10.70;99.90
802;DHT22;383;48.766;9.270;2022-10-31T07:02:59;10.80;99.90
802;DHT22;383;48.766;9.270;2022-10-31T07:05:26;10.80;99.90
802;DHT22;383;48.766;9.270;2022-10-31T07:07:54;10.80;99.90
802;DHT22;383;48.766;9.270;2022-10-31T07:10:23;10.90;99.90
802;DHT22;383;48.766;9.270;2022-10-31T07:12:54;10.90;99.90
802;DHT22;383;48.766;9.270;2022-10-31T07:15:21;11.00;99.90
802;DHT22;383;48.766;9.270;2022-10-31T07:17:47;10.90;99.90
802;DHT22;383;48.766;9.270;2022-10-31T07:20:14;11.00;99.90
802;DHT22;383;48.766;9.270;2022-10-31T07:22:41;11.10;99.90
802;DHT22;383;48.766;9.270;2022-10-31T07:25:09;11.10;99.90
802;DHT22;383;48.766;9.270;2022-10-31T07:27:38;11.20;99.90
802;DHT22;383;48.766;9.270;2022-10-31T07:30:07;11.20;99.90
802;DHT22;383;48.766;9.270;2022-10-31T07:32:38;11.30;99.90
802;DHT22;383;48.766;9.270;2022-10-31T07:35:06;11.30;99.90
802;DHT22;383;48.766;9.270;2022-10-31T07:37:33;11.40;99.90
802;DHT22;383;48.766;9.270;2022-10-31T07:40:00;11.50;99.90
802;DHT22;383;48.766;9.270;2022-10-31T07:42:27;11.60;99.90
802;DHT22;383;48.766;9.270;2022-10-31T07:44:55;11.50;99.90
802;DHT22;383;48.766;9.270;2022-10-31T07:47:22;11.60;99.90
802;DHT22;383;48.766;9.270;2022-10-31T07:49:49;11.60;99.90
802;DHT22;383;48.766;9.270;2022-10-31T07:52:16;11.60;99.90
802;DHT22;383;48.766;9.270;2022-10-31T07:54:43;11.70;99.90
802;DHT22;383;48.766;9.270;2022-10-31T07:57:12;11.80;99.90
802;DHT22;383;48.766;9.270;2022-10-31T07:59:39;11.80;99.90
802;DHT22;383;48.766;9.270;2022-10-31T08:02:07;11.90;99.90
802;DHT22;383;48.766;9.270;2022-10-31T08:04:34;12.00;99.90
802;DHT22;383;48.766;9.270;2022-10-31T08:07:01;12.00;99.90
802;DHT22;383;48.766;9.270;2022-10-31T08:09:27;12.10;99.60
802;DHT22;383;48.766;9.270;2022-10-31T08:11:54;12.20;99.00
802;DHT22;383;48.766;9.270;2022-10-31T08:14:21;12.20;98.40
802;DHT22;383;48.766;9.270;2022-10-31T08:16:48;12.30;98.30
802;DHT22;383;48.766;9.270;2022-10-31T08:19:16;12.30;98.40
802;DHT22;383;48.766;9.270;2022-10-31T08:21:42;12.30;98.80
802;DHT22;383;48.766;9.270;2022-10-31T08:24:09;12.30;98.80
802;DHT22;383;48.766;9.270;2022-10-31T08:26:36;12.40;99.30
802;DHT22;383;48.766;9.270;2022-10-31T08:29:03;12.40;99.10
802;DHT22;383;48.766;9.270;2022-10-31T08:31:30;12.50;99.40
802;DHT22;383;48.766;9.270;2022-10-31T08:33:56;12.70;98.50
802;DHT22;383;48.766;9.270;2022-10-31T08:36:24;12.80;98.40
802;DHT22;383;48.766;9.270;2022-10-31T08:38:51;12.90;98.10
802;DHT22;383;48.766;9.270;2022-10-31T08:41:18;13.00;97.70
802;DHT22;383;48.766;9.270;2022-10-31T08:43:45;13.10;97.70
802;DHT22;383;48.766;9.270;2022-10-31T08:46:12;13.20;97.50
802;DHT22;383;48.766;9.270;2022-10-31T08:48:39;13.30;97.00
802;DHT22;383;48.766;9.270;2022-10-31T08:51:06;13.40;97.10
802;DHT22;383;48.766;9.270;2022-10-31T08:53:34;13.50;96.20
802;DHT22;383;48.766;9.270;2022-10-31T08:56:00;13.60;96.20
802;DHT22;383;48.766;9.270;2022-10-31T08:58:27;13.70;95.50
802;DHT22;383;48.766;9.270;2022-10-31T09:00:54;13.80;95.40
802;DHT22;383;48.766;9.270;2022-10-31T09:03:24;13.90;94.70
802;DHT22;383;48.766;9.270;2022-10-31T09:05:55;14.10;93.70
802;DHT22;383;48.766;9.270;2022-10-31T09:08:22;14.20;93.70
802;DHT22;383;48.766;9.270;2022-10-31T09:10:50;14.20;94.10
802;DHT22;383;48.766;9.270;2022-10-31T09:13:18;14.30;93.00
802;DHT22;383;48.766;9.270;2022-10-31T09:15:46;14.40;92.90
802;DHT22;383;48.766;9.270;2022-10-31T09:18:14;14.50;92.50
802;DHT22;383;48.766;9.270;2022-10-31T09:20:42;14.50;92.50
802;DHT22;383;48.766;9.270;2022-10-31T09:23:11;14.60;92.30
802;DHT22;383;48.766;9.270;2022-10-31T09:25:38;14.60;92.20
802;DHT22;383;48.766;9.270;2022-10-31T09:28:09;14.70;92.30
802;DHT22;383;48.766;9.270;2022-10-31T09:30:36;14.70;92.20
802;DHT22;383;48.766;9.270;2022-10-31T09:33:05;14.90;92.10
802;DHT22;383;48.766;9.270;2022-10-31T09:35:33;15.00;91.20
802;DHT22;383;48.766;9.270;2022-10-31T09:38:01;15.00;91.50
802;DHT22;383;48.766;9.270;2022-10-31T09:40:32;15.00;91.70
802;DHT22;383;48.766;9.270;2022-10-31T09:43:07;15.00;92.20
802;DHT22;383;48.766;9.270;2022-10-31T09:45:39;15.00;92.70
802;DHT22;383;48.766;9.270;2022-10-31T09:48:35;15.10;92.90
802;DHT22;383;48.766;9.270;2022-10-31T09:51:07;15.20;92.80
802;DHT22;383;48.766;9.270;2022-10-31T09:53:38;15.30;92.60
802;DHT22;383;48.766;9.270;2022-10-31T09:56:08;15.40;92.20
802;DHT22;383;48.766;9.270;2022-10-31T09:58:42;15.60;91.60
802;DHT22;383;48.766;9.270;2022-10-31T10:01:16;15.60;91.30
802;DHT22;383;48.766;9.270;2022-10-31T10:03:49;15.70;90.10
802;DHT22;383;48.766;9.270;2022-10-31T10:06:19;15.80;89.60
802;DHT22;383;48.766;9.270;2022-10-31T10:08:47;15.80;89.00
802;DHT22;383;48.766;9.270;2022-10-31T10:11:26;15.90;89.30
802;DHT22;383;48.766;9.270;2022-10-31T10:14:09;16.00;88.20
802;DHT22;383;48.766;9.270;2022-10-31T10:16:46;16.00;88.40
802;DHT22;383;48.766;9.270;2022-10-31T10:19:45;16.20;87.30
802;DHT22;383;48.766;9.270;2022-10-31T10:22:19;16.30;86.90
802;DHT22;383;48.766;9.270;2022-10-31T10:24:59;16.30;86.70
802;DHT22;383;48.766;9.270;2022-10-31T10:27:46;16.40;87.30
802;DHT22;383;48.766;9.270;2022-10-31T10:30:17;16.40;87.20
802;DHT22;383;48.766;9.270;2022-10-31T10:32:46;16.50;86.80
802;DHT22;383;48.766;9.270;2022-10-31T10:35:20;16.70;86.30
802;DHT22;383;48.766;9.270;2022-10-31T10:37:51;16.80;86.30
802;DHT22;383;48.766;9.270;2022-10-31T10:40:21;16.90;85.10
802;DHT22;383;48.766;9.270;2022-10-31T10:42:55;17.00;85.50
802;DHT22;383;48.766;9.270;2022-10-31T10:45:46;17.10;85.30
802;DHT22;383;48.766;9.270;2022-10-31T10:48:42;17.20;84.70
802;DHT22;383;48.766;9.270;2022-10-31T10:51:21;17.40;84.40
802;DHT22;383;48.766;9.270;2022-10-31T10:54:07;17.50;83.10
802;DHT22;383;48.766;9.270;2022-10-31T10:56:57;17.70;82.40
802;DHT22;383;48.766;9.270;2022-10-31T10:59:26;17.70;81.90
802;DHT22;383;48.766;9.270;2022-10-31T11:01:54;17.70;82.40
802;DHT22;383;48.766;9.270;2022-10-31T11:04:28;17.80;82.00
802;DHT22;383;48.766;9.270;2022-10-31T11:07:03;17.80;82.40
802;DHT22;383;48.766;9.270;2022-10-31T11:09:31;17.90;82.60
802;DHT22;383;48.766;9.270;2022-10-31T11:11:58;17.90;81.90
802;DHT22;383;48.766;9.270;2022-10-31T11:14:27;18.00;82.70
802;DHT22;383;48.766;9.270;2022-10-31T11:17:07;18.10;82.40
802;DHT22;383;48.766;9.270;2022-10-31T11:19:36;18.10;83.00
802;DHT22;383;48.766;9.270;2022-10-31T11:22:08;18.20;82.80
802;DHT22;383;48.766;9.270;2022-10-31T11:24:41;18.30;82.70
802;DHT22;383;48.766;9.270;2022-10-31T11:27:14;18.50;81.50
802;DHT22;383;48.766;9.270;2022-10-31T11:29:42;18.60;79.90
802;DHT22;383;48.766;9.270;2022-10-31T11:32:18;18.80;80.20
802;DHT22;383;48.766;9.270;2022-10-31T11:34:47;18.80;79.40
802;DHT22;383;48.766;9.270;2022-10-31T11:37:18;18.90;79.90
802;DHT22;383;48.766;9.270;2022-10-31T11:39:46;19.00;79.30
802;DHT22;383;48.766;9.270;2022-10-31T11:42:20;19.00;79.30
802;DHT22;383;48.766;9.270;2022-10-31T11:44:47;19.10;78.70
802;DHT22;383;48.766;9.270;2022-10-31T11:47:17;19.20;78.60
802;DHT22;383;48.766;9.270;2022-10-31T11:49:45;19.20;78.90
802;DHT22;383;48.766;9.270;2022-10-31T11:52:18;19.30;78.30
802;DHT22;383;48.766;9.270;2022-10-31T11:54:48;19.40;77.90
802;DHT22;383;48.766;9.270;2022-10-31T11:57:26;19.40;78.20
802;DHT22;383;48.766;9.270;2022-10-31T11:59:55;19.40;77.80
802;DHT22;383;48.766;9.270;2022-10-31T12:02:24;19.40;77.00
802;DHT22;383;48.766;9.270;2022-10-31T12:04:57;19.40;77.50
802;DHT22;383;48.766;9.270;2022-10-31T12:07:25;19.40;76.90
802;DHT22;383;48.766;9.270;2022-10-31T12:09:52;19.40;77.00
802;DHT22;383;48.766;9.270;2022-10-31T12:12:39;19.40;77.40
802;DHT22;383;48.766;9.270;2022-10-31T12:15:27;19.50;77.90
802;DHT22;383;48.766;9.270;2022-10-31T12:18:17;19.60;76.60
802;DHT22;383;48.766;9.270;2022-10-31T12:20:59;19.60;76.70
802;DHT22;383;48.766;9.270;2022-10-31T12:23:40;19.60;77.10
802;DHT22;383;48.766;9.270;2022-10-31T12:26:16;19.70;77.30
802;DHT22;383;48.766;9.270;2022-10-31T12:29:03;19.90;77.10
802;DHT22;383;48.766;9.270;2022-10-31T12:31:43;20.00;77.50
802;DHT22;383;48.766;9.270;2022-10-31T12:34:39;20.00;76.90
802;DHT22;383;48.766;9.270;2022-10-31T12:37:15;20.20;76.20
802;DHT22;383;48.766;9.270;2022-10-31T12:40:05;20.20;75.80
802;DHT22;383;48.766;9.270;2022-10-31T12:42:46;20.20;75.30
802;DHT22;383;48.766;9.270;2022-10-31T12:45:33;20.20;75.70
802;DHT22;383;48.766;9.270;2022-10-31T12:48:14;20.20;75.80
802;DHT22;383;48.766;9.270;2022-10-31T12:50:52;20.20;76.30
802;DHT22;383;48.766;9.270;2022-10-31T12:53:30;20.20;77.30
802;DHT22;383;48.766;9.270;2022-10-31T12:56:10;20.20;77.00
802;DHT22;383;48.766;9.270;2022-10-31T12:58:43;20.20;77.40
802;DHT22;383;48.766;9.270;2022-10-31T13:01:14;20.10;77.30
802;DHT22;383;48.766;9.270;2022-10-31T13:03:46;20.10;76.00
802;DHT22;383;48.766;9.270;2022-10-31T13:06:22;20.10;74.20
802;DHT22;383;48.766;9.270;2022-10-31T13:08:53;20.00;74.00
802;DHT22;383;48.766;9.270;2022-10-31T13:11:25;20.00;74.50
802;DHT22;383;48.766;9.270;2022-10-31T13:13:58;20.00;74.80
802;DHT22;383;48.766;9.270;2022-10-31T13:16:29;20.00;74.60
802;DHT22;383;48.766;9.270;2022-10-31T13:19:00;20.00;75.00
802;DHT22;383;48.766;9.270;2022-10-31T13:21:34;19.90;75.30
802;DHT22;383;48.766;9.270;2022-10-31T13:24:07;19.90;75.30
802;DHT22;383;48.766;9.270;2022-10-31T13:26:38;19.90;75.70
802;DHT22;383;48.766;9.270;2022-10-31T13:29:14;19.90;76.20
802;DHT22;383;48.766;9.270;2022-10-31T13:31:43;19.90;76.50
802;DHT22;383;48.766;9.270;2022-10-31T13:34:18;19.90;76.50
802;DHT22;383;48.766;9.270;2022-10-31T13:36:57;19.90;76.50
802;DHT22;383;48.766;9.270;2022-10-31T13:39:34;19.90;76.50
802;DHT22;383;48.766;9.270;2022-10-31T13:42:14;19.80;76.60
802;DHT22;383;48.766;9.270;2022-10-31T13:44:42;19.80;75.80
802;DHT22;383;48.766;9.270;2022-10-31T13:47:24;19.80;76.00
802;DHT22;383;48.766;9.270;2022-10-31T13:49:51;19.90;75.60
802;DHT22;383;48.766;9.270;2022-10-31T13:52:30;20.00;75.30
802;DHT22;383;48.766;9.270;2022-10-31T13:54:57;20.10;74.60
802;DHT22;383;48.766;9.270;2022-10-31T13:57:31;20.20;75.20
802;DHT22;383;48.766;9.270;2022-10-31T14:00:01;20.30;76.20
802;DHT22;383;48.766;9.270;2022-10-31T14:02:30;20.30;76.60
802;DHT22;383;48.766;9.270;2022-10-31T14:05:00;20.30;77.10
802;DHT22;383;48.766;9.270;2022-10-31T14:07:29;20.40;77.10
802;DHT22;383;48.766;9.270;2022-10-31T14:09:59;20.40;76.60
802;DHT22;383;48.766;9.270;2022-10-31T14:12:30;20.40;76.20
802;DHT22;383;48.766;9.270;2022-10-31T14:15:02;20.40;76.00
802;DHT22;383;48.766;9.270;2022-10-31T14:17:38;20.30;75.70
802;DHT22;383;48.766;9.270;2022-10-31T14:20:38;20.20;75.30
802;DHT22;383;48.766;9.270;2022-10-31T14:23:38;20.10;75.20
802;DHT22;383;48.766;9.270;2022-10-31T14:26:20;20.10;75.20
802;DHT22;383;48.766;9.270;2022-10-31T14:28:48;20.00;75.60
802;DHT22;383;48.766;9.270;2022-10-31T14:31:29;19.90;76.10
802;DHT22;383;48.766;9.270;2022-10-31T14:33:58;19.90;75.60
802;DHT22;383;48.766;9.270;2022-10-31T14:36:31;19.80;75.60
802;DHT22;383;48.766;9.270;2022-10-31T14:39:03;19.80;76.50
802;DHT22;383;48.766;9.270;2022-10-31T14:41:44;19.70;76.30
802;DHT22;383;48.766;9.270;2022-10-31T14:44:39;19.70;76.10
802;DHT22;383;48.766;9.270;2022-10-31T14:47:16;19.60;76.50
802;DHT22;383;48.766;9.270;2022-10-31T14:50:04;19.60;77.40
802;DHT22;383;48.766;9.270;2022-10-31T14:52:35;19.50;77.90
802;DHT22;383;48.766;9.270;2022-10-31T14:55:07;19.40;78.10
802;DHT22;383;48.766;9.270;2022-10-31T14:57:38;19.30;78.60
802;DHT22;383;48.766;9.270;2022-10-31T15:00:16;19.20;79.90
802;DHT22;383;48.766;9.270;2022-10-31T15:02:49;19.20;81.80
802;DHT22;383;48.766;9.270;2022-10-31T15:05:18;19.10;82.70
802;DHT22;383;48.766;9.270;2022-10-31T15:07:51;19.00;83.00
802;DHT22;383;48.766;9.270;2022-10-31T15:10:24;18.90;83.60
802;DHT22;383;48.766;9.270;2022-10-31T15:12:52;18.80;84.40
802;DHT22;383;48.766;9.270;2022-10-31T15:15:21;18.80;84.70
802;DHT22;383;48.766;9.270;2022-10-31T15:17:51;18.60;85.30
802;DHT22;383;48.766;9.270;2022-10-31T15:20:20;18.50;85.60
802;DHT22;383;48.766;9.270;2022-10-31T15:22:48;18.50;85.60
802;DHT22;383;48.766;9.270;2022-10-31T15:25:18;18.50;85.90
802;DHT22;383;48.766;9.270;2022-10-31T15:27:48;18.30;86.10
802;DHT22;383;48.766;9.270;2022-10-31T15:30:20;18.30;86.10
802;DHT22;383;48.766;9.270;2022-10-31T15:32:47;18.20;86.70
802;DHT22;383;48.766;9.270;2022-10-31T15:35:21;18.10;87.60
802;DHT22;383;48.766;9.270;2022-10-31T15:37:50;18.00;88.40
802;DHT22;383;48.766;9.270;2022-10-31T15:40:19;17.90;89.20
802;DHT22;383;48.766;9.270;2022-10-31T15:42:50;17.80;89.30
802;DHT22;383;48.766;9.270;2022-10-31T15:45:20;17.80;89.20
802;DHT22;383;48.766;9.270;2022-10-31T15:47:54;17.70;89.30
802;DHT22;383;48.766;9.270;2022-10-31T15:50:28;17.50;89.80
802;DHT22;383;48.766;9.270;2022-10-31T15:52:56;17.40;90.10
802;DHT22;383;48.766;9.270;2022-10-31T15:55:25;17.20;90.50
802;DHT22;383;48.766;9.270;2022-10-31T15:57:56;17.10;90.70
802;DHT22;383;48.766;9.270;2022-10-31T16:00:25;16.90;91.10
802;DHT22;383;48.766;9.270;2022-10-31T16:03:03;16.80;91.40
802;DHT22;383;48.766;9.270;2022-10-31T16:05:36;16.70;91.70
802;DHT22;383;48.766;9.270;2022-10-31T16:08:03;16.60;92.00
802;DHT22;383;48.766;9.270;2022-10-31T16:10:33;16.40;92.30
802;DHT22;383;48.766;9.270;2022-10-31T16:13:01;16.40;92.40
802;DHT22;383;48.766;9.270;2022-10-31T16:15:28;16.30;92.60
802;DHT22;383;48.766;9.270;2022-10-31T16:17:57;16.20;92.70
802;DHT22;383;48.766;9.270;2022-10-31T16:20:26;16.10;93.00
802;DHT22;383;48.766;9.270;2022-10-31T16:22:55;16.00;93.20
802;DHT22;383;48.766;9.270;2022-10-31T16:25:26;16.00;93.40
802;DHT22;383;48.766;9.270;2022-10-31T16:27:56;15.90;93.50
802;DHT22;383;48.766;9.270;2022-10-31T16:30:39;15.80;93.90
802;DHT22;383;48.766;9.270;2022-10-31T16:33:21;15.80;94.00
802;DHT22;383;48.766;9.270;2022-10-31T16:35:49;15.70;94.10
802;DHT22;383;48.766;9.270;2022-10-31T16:38:16;15.60;94.40
802;DHT22;383;48.766;9.270;2022-10-31T16:40:43;15.60;94.60
802;DHT22;383;48.766;9.270;2022-10-31T16:43:12;15.50;94.70
802;DHT22;383;48.766;9.270;2022-10-31T16:45:44;15.40;94.90
802;DHT22;383;48.766;9.270;2022-10-31T16:48:12;15.40;94.90
802;DHT22;383;48.766;9.270;2022-10-31T16:50:40;15.30;95.20
802;DHT22;383;48.766;9.270;2022-10-31T16:53:08;15.20;95.40
802;DHT22;383;48.766;9.270;2022-10-31T16:55:41;15.10;95.70
802;DHT22;383;48.766;9.270;2022-10-31T16:58:13;15.00;95.80
802;DHT22;383;48.766;9.270;2022-10-31T17:00:42;15.00;96.00
802;DHT22;383;48.766;9.270;2022-10-31T17:03:09;14.90;95.70